Time;durP1;ratioP1;P1;durP2;ratioP2;P2;SDS_P1;SDS_P2;PMS_P1;PMS_P2;Temp;Humidity;BMP_temperature;BMP_pressure;BME280_temperature;BME280_humidity;BME280_pressure;Samples;Min_cycle;Max_cycle;Signal;HPM_P1;HPM_P2
2022/08/08 00:00:13;;;;;;;2.47;2.35;;;13.30;99.90;;;;;;6160479;23;20009;-84
2022/08/08 00:03:17;;;;;;;4.53;2.00;;;13.30;99.90;;;;;;6149454;23;20386;-83
2022/08/08 00:06:06;;;;;;;2.70;2.50;;;13.30;99.90;;;;;;6154152;23;20029;-78
2022/08/08 00:08:51;;;;;;;2.05;1.95;;;13.30;99.90;;;;;;6131116;23;20018;-77
2022/08/08 00:11:40;;;;;;;2.83;2.53;;;13.30;99.90;;;;;;6130188;23;20363;-78
2022/08/08 00:14:40;;;;;;;2.50;2.33;;;13.40;99.90;;;;;;6150436;23;20465;-77
2022/08/08 00:17:25;;;;;;;9.55;3.35;;;13.40;99.90;;;;;;6156066;23;20048;-79
2022/08/08 00:20:09;;;;;;;2.10;1.90;;;13.40;99.90;;;;;;6159947;23;20445;-78
2022/08/08 00:22:54;;;;;;;2.13;2.03;;;13.40;99.90;;;;;;6147460;23;20029;-83
2022/08/08 00:25:44;;;;;;;2.53;2.10;;;13.20;99.90;;;;;;6156593;23;20261;-84
2022/08/08 00:28:26;;;;;;;2.85;1.80;;;13.00;99.90;;;;;;6121991;23;20024;-83
2022/08/08 00:31:27;;;;;;;2.33;2.22;;;12.80;99.90;;;;;;6122703;23;20029;-82
2022/08/08 00:37:50;;;;;;;1.92;1.83;;;12.70;99.90;;;;;;6095401;23;20056;-82
2022/08/08 00:40:28;;;;;;;2.90;2.70;;;12.70;99.90;;;;;;6133852;23;20020;-83
2022/08/08 00:43:34;;;;;;;2.80;1.67;;;12.70;99.90;;;;;;6134003;23;20488;-83
2022/08/08 00:46:29;;;;;;;2.05;1.95;;;12.80;99.90;;;;;;6153279;23;20353;-82
2022/08/08 00:49:17;;;;;;;2.10;1.90;;;12.70;99.90;;;;;;6155928;23;20030;-83
2022/08/08 00:52:30;;;;;;;6.15;2.55;;;12.40;99.90;;;;;;6158465;23;20025;-83
2022/08/08 00:55:20;;;;;;;1.88;1.77;;;12.30;99.90;;;;;;6070395;23;20040;-82
2022/08/08 00:58:30;;;;;;;3.65;3.22;;;12.20;99.90;;;;;;6152809;23;20021;-83
2022/08/08 01:01:18;;;;;;;2.38;2.20;;;12.20;99.90;;;;;;6155826;23;20488;-83
2022/08/08 01:04:58;;;;;;;2.58;2.40;;;12.20;99.90;;;;;;6158875;23;20330;-83
2022/08/08 01:07:52;;;;;;;2.42;2.22;;;12.20;99.90;;;;;;6149329;23;20475;-83
2022/08/08 01:11:10;;;;;;;2.75;2.55;;;12.00;99.90;;;;;;6125364;23;20026;-83
2022/08/08 01:13:57;;;;;;;2.60;2.40;;;12.00;99.90;;;;;;6127878;23;20349;-82
2022/08/08 01:16:57;;;;;;;2.20;2.10;;;12.00;99.90;;;;;;6158698;23;20324;-83
2022/08/08 01:19:54;;;;;;;6.15;2.50;;;12.00;99.90;;;;;;6131191;23;20029;-85
2022/08/08 01:22:40;;;;;;;2.70;2.53;;;12.00;99.90;;;;;;6147660;23;20037;-87
2022/08/08 01:25:16;;;;;;;3.00;2.80;;;12.00;99.90;;;;;;6123276;23;20022;-85
2022/08/08 01:28:03;;;;;;;3.15;2.50;;;12.00;99.90;;;;;;6123595;23;20044;-83
2022/08/08 01:31:11;;;;;;;2.40;2.20;;;12.00;99.90;;;;;;6147682;23;20353;-84
2022/08/08 01:34:32;;;;;;;3.92;3.72;;;12.00;99.90;;;;;;6148296;23;20577;-84
2022/08/08 01:37:29;;;;;;;2.58;2.38;;;12.10;99.90;;;;;;6129230;23;20030;-85
2022/08/08 01:40:42;;;;;;;2.75;2.55;;;12.10;99.90;;;;;;6158256;23;20009;-85
2022/08/08 01:43:35;;;;;;;2.58;2.47;;;12.00;99.90;;;;;;6156972;23;20028;-86
2022/08/08 01:46:39;;;;;;;2.60;2.40;;;12.00;99.90;;;;;;6149660;23;20030;-85
2022/08/08 01:49:17;;;;;;;2.88;2.67;;;12.10;99.90;;;;;;6155990;23;20354;-84
2022/08/08 01:52:20;;;;;;;3.75;3.45;;;12.10;99.90;;;;;;6099428;23;20029;-86
2022/08/08 01:55:34;;;;;;;3.72;3.42;;;12.30;99.90;;;;;;6157596;23;20025;-84
2022/08/08 01:58:55;;;;;;;3.03;2.83;;;12.40;99.90;;;;;;6126803;23;20028;-84
2022/08/08 02:01:47;;;;;;;2.75;2.53;;;12.50;99.90;;;;;;6154890;23;20373;-85
2022/08/08 02:05:03;;;;;;;2.97;2.22;;;12.40;99.90;;;;;;6159224;23;20017;-85
2022/08/08 02:07:38;;;;;;;3.05;2.85;;;12.50;99.90;;;;;;6157659;23;20036;-85
2022/08/08 02:10:36;;;;;;;3.60;3.30;;;12.50;99.90;;;;;;6124517;23;20025;-85
2022/08/08 02:13:20;;;;;;;3.63;2.80;;;12.30;99.90;;;;;;6120174;23;20022;-85
2022/08/08 02:16:22;;;;;;;3.25;2.95;;;12.20;99.90;;;;;;6130132;23;20021;-84
2022/08/08 02:19:20;;;;;;;3.45;3.10;;;12.20;99.90;;;;;;6118999;23;20025;-84
2022/08/08 02:22:43;;;;;;;4.40;3.72;;;12.30;99.90;;;;;;6073855;23;20512;-85
2022/08/08 02:25:47;;;;;;;3.53;3.28;;;12.30;99.90;;;;;;6125946;23;20370;-76
2022/08/08 02:29:00;;;;;;;4.40;2.90;;;12.40;99.90;;;;;;6129727;23;20018;-77
2022/08/08 02:31:32;;;;;;;;;;;12.40;99.90;;;;;;5979552;23;20028;-84
2022/08/08 02:34:38;;;;;;;4.70;4.30;;;12.50;99.90;;;;;;6092586;23;19916;-85
2022/08/08 02:37:45;;;;;;;4.13;3.83;;;12.50;99.90;;;;;;6123937;23;20026;-84
2022/08/08 02:41:07;;;;;;;3.85;3.55;;;12.40;99.90;;;;;;6096466;23;20021;-85
2022/08/08 02:44:37;;;;;;;7.45;3.70;;;12.40;99.90;;;;;;6051081;23;20453;-84
2022/08/08 02:47:34;;;;;;;4.15;3.85;;;12.40;99.90;;;;;;6089019;23;20022;-85
2022/08/08 02:50:24;;;;;;;4.22;3.92;;;12.40;99.90;;;;;;6098903;23;20026;-84
2022/08/08 02:53:23;;;;;;;4.03;3.72;;;12.30;99.90;;;;;;6117994;23;20022;-85
2022/08/08 02:56:22;;;;;;;4.07;3.60;;;12.20;99.90;;;;;;6129956;23;20014;-84
2022/08/08 02:59:07;;;;;;;3.92;3.10;;;12.20;99.90;;;;;;6119089;23;20033;-84
2022/08/08 03:02:26;;;;;;;3.88;3.58;;;12.00;99.90;;;;;;6118632;23;20034;-85
2022/08/08 03:05:17;;;;;;;5.10;3.85;;;12.00;99.90;;;;;;6103386;23;20029;-85
2022/08/08 03:08:19;;;;;;;4.20;3.90;;;12.10;99.90;;;;;;6127699;23;20018;-85
2022/08/08 03:11:06;;;;;;;3.53;3.15;;;12.10;99.90;;;;;;6101923;23;20025;-84
2022/08/08 03:14:20;;;;;;;3.80;3.50;;;12.10;99.90;;;;;;6154546;23;20026;-84
2022/08/08 03:17:14;;;;;;;6.00;3.58;;;12.00;99.90;;;;;;6148743;23;20465;-84
2022/08/08 03:20:04;;;;;;;3.63;3.33;;;11.90;99.90;;;;;;6113021;23;20270;-85
2022/08/08 03:22:49;;;;;;;4.05;3.50;;;11.90;99.90;;;;;;6124266;23;20037;-85
2022/08/08 03:25:31;;;;;;;4.40;4.00;;;11.90;99.90;;;;;;6130473;23;20037;-85
2022/08/08 03:28:41;;;;;;;6.88;3.88;;;12.00;99.90;;;;;;6123952;23;20461;-86
2022/08/08 03:34:18;;;;;;;2.85;2.65;;;12.10;99.90;;;;;;6151628;23;20373;-84
2022/08/08 03:36:48;;;;;;;4.30;3.27;;;12.10;99.90;;;;;;6122572;23;20017;-84
2022/08/08 03:39:16;;;;;;;4.32;3.70;;;12.00;99.90;;;;;;6134340;23;20017;-86
2022/08/08 03:41:46;;;;;;;4.63;4.22;;;11.80;99.90;;;;;;6129042;23;20040;-84
2022/08/08 03:44:39;;;;;;;3.92;3.65;;;11.80;99.90;;;;;;6133694;23;20013;-85
2022/08/08 03:47:20;;;;;;;3.80;3.45;;;11.80;99.90;;;;;;6159421;23;20017;-84
2022/08/08 03:49:52;;;;;;;5.13;3.95;;;11.80;99.90;;;;;;6152368;23;20037;-86
2022/08/08 03:52:35;;;;;;;2.80;2.60;;;11.80;99.90;;;;;;6131678;23;20017;-85
2022/08/08 03:55:16;;;;;;;4.95;3.78;;;11.80;99.90;;;;;;6159188;23;20333;-84
2022/08/08 03:58:07;;;;;;;4.53;4.10;;;11.70;99.90;;;;;;6123136;23;20026;-85
2022/08/08 04:01:04;;;;;;;4.13;3.83;;;11.80;99.90;;;;;;6156291;23;20022;-85
2022/08/08 04:03:53;;;;;;;4.78;3.65;;;11.80;99.90;;;;;;6134156;23;20028;-85
2022/08/08 04:06:27;;;;;;;3.80;3.40;;;11.90;99.90;;;;;;6124936;23;20032;-81
2022/08/08 04:09:01;;;;;;;4.00;3.65;;;11.90;99.90;;;;;;6121707;23;20373;-85
2022/08/08 04:11:40;;;;;;;4.50;4.20;;;11.90;99.90;;;;;;6102565;23;20025;-84
2022/08/08 04:14:56;;;;;;;3.80;3.42;;;11.90;99.90;;;;;;6123169;23;20033;-81
2022/08/08 04:17:24;;;;;;;4.07;3.58;;;11.80;99.90;;;;;;6156392;23;20454;-84
2022/08/08 04:20:12;;;;;;;4.38;3.85;;;11.70;99.90;;;;;;6134202;23;20013;-84
2022/08/08 04:22:41;;;;;;;5.93;5.05;;;11.70;99.90;;;;;;6123381;23;20017;-85
2022/08/08 04:25:11;;;;;;;3.90;3.67;;;11.80;99.90;;;;;;6076930;23;20032;-84
2022/08/08 04:27:42;;;;;;;4.13;3.75;;;11.80;99.90;;;;;;6111703;23;20553;-86
2022/08/08 04:30:30;;;;;;;3.47;2.90;;;11.80;99.90;;;;;;6104230;23;20029;-84
2022/08/08 04:33:11;;;;;;;3.22;3.03;;;12.00;99.90;;;;;;6131202;23;20029;-85
2022/08/08 04:35:42;;;;;;;;;;;11.90;99.90;;;;;;6077858;23;20025;-84
2022/08/08 04:38:19;;;;;;;5.65;3.50;;;11.80;99.90;;;;;;6121555;23;19948;-85
2022/08/08 04:40:50;;;;;;;7.70;3.70;;;11.80;99.90;;;;;;6133176;23;20013;-84
2022/08/08 04:43:22;;;;;;;4.10;3.80;;;11.80;99.90;;;;;;6124692;23;20022;-84
2022/08/08 04:46:12;;;;;;;5.72;3.67;;;11.90;99.90;;;;;;6124065;23;20040;-85
2022/08/08 04:48:42;;;;;;;4.20;3.78;;;12.00;99.90;;;;;;6098428;23;20484;-84
2022/08/08 04:51:10;;;;;;;4.53;4.13;;;12.10;99.90;;;;;;6134677;23;20013;-85
2022/08/08 04:53:50;;;;;;;3.75;3.13;;;12.20;99.90;;;;;;6125280;23;20353;-84
2022/08/08 04:56:38;;;;;;;5.18;4.35;;;12.30;99.90;;;;;;6099074;23;20013;-85
2022/08/08 04:59:06;;;;;;;5.88;4.35;;;12.30;99.90;;;;;;6133686;23;20018;-84
2022/08/08 05:01:34;;;;;;;7.15;4.47;;;12.40;99.90;;;;;;6129548;23;20021;-84
2022/08/08 05:04:17;;;;;;;3.75;3.40;;;12.50;99.90;;;;;;6100432;23;20021;-84
2022/08/08 05:06:47;;;;;;;5.35;4.45;;;12.60;99.90;;;;;;6097632;23;20457;-85
2022/08/08 05:09:19;;;;;;;7.80;4.05;;;12.80;99.90;;;;;;6154553;23;20212;-85
2022/08/08 05:11:48;;;;;;;4.63;4.30;;;13.00;99.90;;;;;;6152990;23;20024;-85
2022/08/08 05:14:26;;;;;;;4.40;3.97;;;13.10;99.90;;;;;;6126004;23;20348;-86
2022/08/08 05:16:58;;;;;;;4.97;4.57;;;13.30;99.90;;;;;;6108513;23;20033;-85
2022/08/08 05:19:34;;;;;;;4.03;3.63;;;13.50;99.90;;;;;;6100594;23;20020;-85
2022/08/08 05:22:28;;;;;;;5.63;5.13;;;13.70;99.90;;;;;;6148267;23;20026;-84
2022/08/08 05:24:57;;;;;;;5.63;4.95;;;13.90;99.90;;;;;;6076062;23;20445;-84
2022/08/08 05:27:25;;;;;;;5.00;3.60;;;13.90;99.90;;;;;;6100104;23;20058;-85
2022/08/08 05:29:59;;;;;;;4.00;3.70;;;14.10;99.90;;;;;;6122653;23;20048;-85
2022/08/08 05:32:33;;;;;;;5.47;4.30;;;14.20;99.90;;;;;;6132944;23;20013;-84
2022/08/08 05:35:07;;;;;;;5.68;5.15;;;14.40;99.90;;;;;;6158924;23;20342;-85
2022/08/08 05:37:46;;;;;;;5.38;4.40;;;14.60;99.90;;;;;;6127304;23;20409;-84
2022/08/08 05:40:49;;;;;;;5.15;4.70;;;14.80;99.90;;;;;;6146019;23;20028;-85
2022/08/08 05:43:33;;;;;;;4.90;4.18;;;15.00;99.90;;;;;;6134271;23;20433;-83
2022/08/08 05:46:23;;;;;;;5.00;4.50;;;15.10;99.90;;;;;;6100573;23;20040;-85
2022/08/08 05:48:54;;;;;;;4.88;4.45;;;15.40;99.90;;;;;;6122457;23;20365;-85
2022/08/08 05:51:27;;;;;;;4.88;3.80;;;15.60;99.90;;;;;;6158016;23;20334;-84
2022/08/08 05:54:16;;;;;;;5.03;4.55;;;15.70;99.90;;;;;;6123759;23;20026;-85
2022/08/08 05:57:10;;;;;;;7.32;3.60;;;16.00;99.90;;;;;;6110874;23;20025;-85
2022/08/08 05:59:47;;;;;;;5.30;4.22;;;16.30;99.90;;;;;;6123580;23;20087;-85
2022/08/08 06:05:58;;;;;;;3.85;3.55;;;16.80;99.90;;;;;;6148366;23;20025;-86
2022/08/08 06:08:41;;;;;;;7.60;4.88;;;17.00;99.90;;;;;;6120899;23;20021;-85
2022/08/08 06:11:30;;;;;;;5.45;4.95;;;17.00;99.90;;;;;;6151390;23;20049;-83
2022/08/08 06:14:04;;;;;;;7.50;3.45;;;17.10;99.90;;;;;;6152230;23;20025;-86
2022/08/08 06:16:41;;;;;;;4.20;3.78;;;17.20;99.90;;;;;;6109877;23;20017;-85
2022/08/08 06:19:24;;;;;;;4.97;4.47;;;17.20;99.90;;;;;;6123509;23;20428;-84
2022/08/08 06:21:54;;;;;;;4.35;4.03;;;17.30;99.90;;;;;;6152216;23;20030;-85
2022/08/08 06:24:36;;;;;;;3.90;3.60;;;17.30;99.90;;;;;;6147858;23;20029;-84
2022/08/08 06:27:09;;;;;;;5.07;4.65;;;17.30;99.90;;;;;;6155537;23;20021;-84
2022/08/08 06:30:04;;;;;;;6.28;3.85;;;17.40;99.90;;;;;;6124277;23;20468;-87
2022/08/08 06:32:47;;;;;;;4.25;3.95;;;17.40;99.90;;;;;;6124450;23;20402;-83
2022/08/08 06:35:18;;;;;;;4.28;3.83;;;17.50;99.90;;;;;;6150294;23;20453;-84
2022/08/08 06:38:10;;;;;;;4.45;3.88;;;17.50;99.90;;;;;;6146978;23;20327;-83
2022/08/08 06:40:51;;;;;;;3.83;3.50;;;17.60;99.90;;;;;;6111153;23;20018;-86
2022/08/08 06:43:26;;;;;;;5.30;4.90;;;17.70;99.90;;;;;;6135747;23;20014;-87
2022/08/08 06:46:05;;;;;;;4.60;4.20;;;17.60;99.90;;;;;;6124955;23;20453;-85
2022/08/08 06:48:36;;;;;;;5.95;5.00;;;17.80;99.90;;;;;;6158096;23;20062;-85
2022/08/08 06:51:06;;;;;;;4.25;3.85;;;17.80;99.90;;;;;;6135509;23;20040;-85
2022/08/08 06:53:36;;;;;;;6.70;6.03;;;18.00;99.90;;;;;;6123469;23;20508;-84
2022/08/08 06:56:09;;;;;;;4.57;4.18;;;18.00;99.90;;;;;;6161750;23;20018;-84
2022/08/08 06:58:37;;;;;;;4.78;4.38;;;18.00;99.90;;;;;;6076136;23;20026;-83
2022/08/08 07:01:12;;;;;;;;;;;18.00;99.90;;;;;;6132750;23;20080;-84
2022/08/08 07:04:29;;;;;;;4.63;4.00;;;18.00;99.90;;;;;;6140728;23;19916;-84
2022/08/08 07:07:08;;;;;;;;;;;18.00;99.90;;;;;;6107035;23;20032;-77
2022/08/08 07:09:46;;;;;;;4.65;4.25;;;17.90;99.90;;;;;;6153739;23;19924;-77
2022/08/08 07:12:43;;;;;;;5.32;4.82;;;18.00;99.90;;;;;;6149915;23;20013;-77
2022/08/08 07:15:44;;;;;;;6.30;5.18;;;18.00;99.90;;;;;;6159612;23;20463;-85
2022/08/08 07:19:04;;;;;;;5.15;4.65;;;18.10;99.90;;;;;;6080505;23;20025;-84
2022/08/08 07:21:46;;;;;;;4.43;4.13;;;18.00;99.90;;;;;;6123634;23;20029;-85
2022/08/08 07:24:33;;;;;;;5.38;4.07;;;17.80;99.90;;;;;;6125286;23;20017;-86
2022/08/08 07:27:05;;;;;;;10.93;4.93;;;17.70;99.90;;;;;;6148913;23;20022;-86
2022/08/08 07:29:39;;;;;;;4.78;4.40;;;17.70;99.90;;;;;;6154096;23;20025;-84
2022/08/08 07:32:28;;;;;;;5.68;5.15;;;17.70;99.90;;;;;;6134737;23;20013;-85
2022/08/08 07:35:00;;;;;;;5.78;4.35;;;17.70;99.90;;;;;;6124205;23;20492;-86
2022/08/08 07:37:38;;;;;;;5.55;4.15;;;17.80;99.90;;;;;;6152639;23;20021;-84
2022/08/08 07:40:33;;;;;;;5.05;4.65;;;18.00;99.90;;;;;;6124484;23;20022;-85
2022/08/08 07:43:05;;;;;;;5.30;4.82;;;18.20;99.90;;;;;;6100919;23;20017;-85
2022/08/08 07:45:42;;;;;;;4.50;3.53;;;18.60;99.90;;;;;;6149302;23;20029;-85
2022/08/08 07:48:30;;;;;;;4.93;4.50;;;18.80;99.90;;;;;;6123697;23;20353;-84
2022/08/08 07:51:01;;;;;;;4.80;3.97;;;19.10;99.90;;;;;;6124047;23;20041;-84
2022/08/08 07:53:52;;;;;;;5.18;4.47;;;19.30;99.90;;;;;;6129991;23;20018;-84
2022/08/08 07:57:01;;;;;;;4.15;3.85;;;19.50;99.90;;;;;;6148694;23;20390;-85
2022/08/08 07:59:36;;;;;;;4.50;4.10;;;19.60;99.90;;;;;;6124536;23;20013;-83
2022/08/08 08:02:11;;;;;;;4.57;4.18;;;19.60;99.90;;;;;;6152116;23;20060;-85
2022/08/08 08:05:01;;;;;;;8.43;4.85;;;19.60;99.90;;;;;;6156982;23;20366;-85
2022/08/08 08:07:33;;;;;;;6.78;4.32;;;19.60;99.90;;;;;;6147113;23;20017;-86
2022/08/08 08:10:11;;;;;;;5.35;4.50;;;19.60;99.90;;;;;;6126729;23;20026;-86
2022/08/08 08:12:51;;;;;;;5.43;3.53;;;19.70;99.90;;;;;;6123985;23;20460;-85
2022/08/08 08:15:25;;;;;;;4.18;3.53;;;19.80;99.90;;;;;;6134461;23;20014;-85
2022/08/08 08:18:02;;;;;;;4.22;3.85;;;19.90;99.90;;;;;;6127961;23;20022;-84
2022/08/08 08:20:31;;;;;;;4.53;4.22;;;20.00;99.90;;;;;;6134658;23;20013;-84
2022/08/08 08:23:03;;;;;;;4.53;4.13;;;20.00;99.90;;;;;;6121551;23;20034;-84
2022/08/08 08:25:33;;;;;;;5.57;5.07;;;20.00;99.90;;;;;;6148648;23;20029;-86
2022/08/08 08:28:11;;;;;;;3.40;2.95;;;20.20;99.90;;;;;;6158138;23;20264;-85
2022/08/08 08:30:52;;;;;;;3.25;2.92;;;20.20;99.90;;;;;;6124153;23;20349;-85
2022/08/08 08:33:24;;;;;;;4.30;3.50;;;20.30;99.90;;;;;;6154266;23;20021;-84
2022/08/08 08:35:52;;;;;;;3.00;2.78;;;20.40;99.90;;;;;;6159229;23;20013;-83
2022/08/08 08:38:42;;;;;;;5.25;2.83;;;20.40;99.90;;;;;;6120912;23;20022;-85
2022/08/08 08:41:19;;;;;;;3.80;2.80;;;20.50;99.90;;;;;;6124130;23;20492;-85
2022/08/08 08:43:53;;;;;;;9.82;4.22;;;20.50;99.90;;;;;;6148547;23;20018;-83
2022/08/08 08:46:41;;;;;;;4.28;3.17;;;20.60;99.90;;;;;;6123578;23;20025;-85
2022/08/08 08:49:15;;;;;;;3.38;3.08;;;20.70;99.90;;;;;;6123429;23;20022;-86
2022/08/08 08:51:45;;;;;;;2.58;2.38;;;20.70;99.90;;;;;;6132151;23;20536;-85
2022/08/08 08:54:21;;;;;;;3.47;3.17;;;20.60;99.90;;;;;;6148375;23;20025;-83
2022/08/08 08:56:54;;;;;;;2.88;2.47;;;20.50;99.90;;;;;;6132271;23;20488;-85
2022/08/08 08:59:30;;;;;;;2.35;2.15;;;20.50;99.90;;;;;;6133419;23;20019;-83
2022/08/08 09:02:23;;;;;;;9.52;2.60;;;20.40;99.90;;;;;;6098875;23;20026;-83
2022/08/08 09:05:02;;;;;;;2.70;2.50;;;20.40;99.90;;;;;;6156793;23;20018;-84
2022/08/08 09:07:34;;;;;;;3.38;2.65;;;20.40;99.90;;;;;;6146775;23;20021;-85
2022/08/08 09:10:22;;;;;;;4.28;2.65;;;20.50;99.90;;;;;;6150088;23;20614;-85
2022/08/08 09:12:57;;;;;;;6.22;3.83;;;20.50;99.90;;;;;;6102348;23;20030;-84
2022/08/08 09:15:26;;;;;;;4.35;2.35;;;20.50;99.90;;;;;;6129226;23;20013;-83
2022/08/08 09:18:10;;;;;;;3.50;3.20;;;20.60;99.90;;;;;;6093230;23;20022;-84
2022/08/08 09:20:43;;;;;;;4.63;4.22;;;20.60;99.90;;;;;;6127890;23;20022;-85
2022/08/08 09:23:31;;;;;;;2.75;2.55;;;20.60;99.90;;;;;;6102690;23;20022;-84
2022/08/08 09:26:14;;;;;;;3.00;2.30;;;20.70;99.90;;;;;;6094439;23;20033;-84
2022/08/08 09:28:43;;;;;;;3.47;3.28;;;20.80;99.90;;;;;;6127233;23;20041;-81
2022/08/08 09:31:47;;;;;;;3.72;2.97;;;20.50;99.90;;;;;;6104786;23;20037;-79
2022/08/08 09:34:31;;;;;;;3.53;2.53;;;20.40;99.90;;;;;;6096562;23;20473;-80
2022/08/08 09:37:07;;;;;;;4.07;2.67;;;20.50;99.90;;;;;;6124478;23;20022;-81
2022/08/08 09:39:56;;;;;;;;;;;20.70;99.90;;;;;;6083035;23;20010;-79
2022/08/08 09:42:35;;;;;;;3.15;2.45;;;21.00;99.90;;;;;;6121254;23;20356;-79
2022/08/08 09:45:31;;;;;;;3.15;2.95;;;21.20;99.90;;;;;;6127091;23;20022;-81
2022/08/08 09:48:19;;;;;;;2.50;2.30;;;21.20;99.90;;;;;;6129626;23;20021;-80
2022/08/08 09:51:42;;;;;;;2.95;2.75;;;21.40;99.90;;;;;;6090162;23;20026;-83
2022/08/08 09:54:43;;;;;;;2.92;2.45;;;21.30;99.90;;;;;;6073876;23;20026;-84
2022/08/08 09:57:16;;;;;;;3.13;2.90;;;21.40;99.90;;;;;;6077450;23;20026;-84
2022/08/08 09:59:50;;;;;;;2.78;2.58;;;21.50;99.90;;;;;;6130042;23;20334;-85
2022/08/08 10:02:44;;;;;;;2.47;2.28;;;21.50;99.90;;;;;;6121076;23;20397;-83
2022/08/08 10:05:15;;;;;;;3.17;2.80;;;21.70;99.90;;;;;;6128118;23;20041;-86
2022/08/08 10:07:52;;;;;;;3.63;3.42;;;21.80;99.90;;;;;;6072917;23;20022;-81
2022/08/08 10:10:34;;;;;;;2.85;2.65;;;21.70;99.90;;;;;;6125537;23;20018;-85
2022/08/08 10:13:24;;;;;;;2.90;2.70;;;21.90;99.90;;;;;;6133451;23;20026;-84
2022/08/08 10:16:02;;;;;;;2.17;2.08;;;21.90;99.90;;;;;;6101744;23;20022;-85
2022/08/08 10:18:33;;;;;;;3.17;2.88;;;22.00;99.90;;;;;;6151042;23;20029;-83
2022/08/08 10:21:06;;;;;;;3.45;3.05;;;22.10;99.90;;;;;;6125396;23;20022;-84
2022/08/08 10:23:56;;;;;;;4.90;3.45;;;22.10;99.90;;;;;;6134274;23;20036;-85
2022/08/08 10:26:31;;;;;;;5.15;3.10;;;22.20;99.90;;;;;;6100747;23;20036;-86
2022/08/08 10:29:31;;;;;;;2.78;2.58;;;22.00;99.90;;;;;;6124931;23;20022;-84
2022/08/08 10:32:31;;;;;;;2.85;1.95;;;21.70;99.90;;;;;;6161332;23;20357;-85
2022/08/08 10:35:16;;;;;;;2.90;2.70;;;21.30;99.90;;;;;;6125982;23;20022;-83
2022/08/08 10:38:08;;;;;;;4.45;2.83;;;21.00;99.90;;;;;;6098595;23;20467;-84
2022/08/08 10:40:41;;;;;;;2.78;2.55;;;20.80;99.90;;;;;;6160743;23;20445;-86
2022/08/08 10:43:09;;;;;;;3.78;2.65;;;20.70;99.90;;;;;;6150537;23;20014;-84
2022/08/08 10:45:45;;;;;;;4.32;3.75;;;21.10;99.90;;;;;;6156472;23;20028;-82
2022/08/08 10:48:35;;;;;;;6.55;3.25;;;21.40;99.90;;;;;;6160735;23;20402;-84
2022/08/08 10:51:25;;;;;;;2.75;2.55;;;21.40;99.90;;;;;;6137246;23;20017;-85
2022/08/08 10:54:07;;;;;;;3.40;2.20;;;21.20;99.90;;;;;;6154592;23;20017;-83
2022/08/08 10:56:37;;;;;;;2.30;2.13;;;21.10;99.90;;;;;;6160674;23;20014;-82
2022/08/08 10:59:10;;;;;;;2.63;2.47;;;21.30;99.90;;;;;;6160730;23;20341;-82
2022/08/08 11:01:45;;;;;;;2.63;2.42;;;21.60;99.90;;;;;;6155999;23;20026;-84
2022/08/08 11:04:21;;;;;;;2.10;2.00;;;21.70;99.90;;;;;;6101244;23;20044;-84
2022/08/08 11:07:05;;;;;;;3.28;2.70;;;21.90;99.90;;;;;;6122437;23;20465;-85
2022/08/08 11:09:46;;;;;;;2.60;2.40;;;21.80;99.90;;;;;;6153750;23;20026;-85
2022/08/08 11:12:14;;;;;;;3.15;2.83;;;21.90;99.90;;;;;;6153914;23;20029;-84
2022/08/08 11:15:04;;;;;;;5.25;2.42;;;22.10;99.90;;;;;;6125776;23;20030;-85
2022/08/08 11:17:35;;;;;;;2.55;2.35;;;22.40;99.90;;;;;;6149080;23;20026;-85
2022/08/08 11:20:24;;;;;;;3.97;2.65;;;22.50;99.90;;;;;;6135179;23;20025;-84
2022/08/08 11:22:56;;;;;;;2.60;2.40;;;22.50;99.90;;;;;;6149372;23;20036;-84
2022/08/08 11:25:31;;;;;;;2.88;2.20;;;22.50;99.90;;;;;;6131172;23;20465;-80
2022/08/08 11:28:25;;;;;;;4.32;2.53;;;22.50;99.90;;;;;;6159152;23;20010;-80
2022/08/08 11:31:00;;;;;;;5.60;4.20;;;22.50;99.90;;;;;;6124129;23;20026;-84
2022/08/08 11:33:33;;;;;;;4.38;2.38;;;22.40;99.90;;;;;;6156542;23;20029;-83
2022/08/08 11:36:21;;;;;;;1.90;1.80;;;22.50;99.90;;;;;;6159897;23;20013;-85
2022/08/08 11:38:55;;;;;;;3.30;3.08;;;22.60;99.90;;;;;;6123650;23;20401;-87
2022/08/08 11:41:25;;;;;;;2.88;2.67;;;22.90;99.90;;;;;;6149381;23;20029;-87
2022/08/08 11:43:59;;;;;;;3.75;2.08;;;23.00;99.90;;;;;;6135236;23;20074;-87
2022/08/08 11:46:28;;;;;;;4.82;2.35;;;23.10;99.90;;;;;;6124294;23;20029;-85
2022/08/08 11:49:00;;;;;;;;;;;22.90;99.90;;;;;;6132617;23;20365;-83
2022/08/08 11:51:32;;;;;;;2.13;1.90;;;22.50;99.90;;;;;;6124003;23;19920;-85
2022/08/08 11:54:16;;;;;;;3.80;2.90;;;22.10;99.90;;;;;;6100118;23;20353;-84
2022/08/08 11:57:11;;;;;;;4.20;2.80;;;21.70;99.90;;;;;;6157072;23;20025;-86
2022/08/08 11:59:55;;;;;;;2.90;2.28;;;21.70;99.90;;;;;;6148448;23;20025;-84
2022/08/08 12:02:53;;;;;;;1.55;1.52;;;22.00;99.90;;;;;;6151205;23;20362;-75
2022/08/08 12:05:37;;;;;;;2.42;2.22;;;22.30;99.90;;;;;;6157030;23;20022;-84
2022/08/08 12:08:05;;;;;;;2.13;1.92;;;22.50;99.90;;;;;;6158048;23;20341;-82
2022/08/08 12:10:44;;;;;;;4.20;1.95;;;22.60;99.70;;;;;;6152162;23;20018;-81
2022/08/08 12:13:20;;;;;;;2.00;1.90;;;22.70;99.90;;;;;;6156120;23;20373;-83
2022/08/08 12:16:08;;;;;;;2.97;1.85;;;22.70;99.70;;;;;;6161093;23;20022;-83
2022/08/08 12:18:48;;;;;;;2.35;1.92;;;22.60;99.90;;;;;;6125103;23;20037;-86
2022/08/08 12:21:27;;;;;;;4.20;2.23;;;22.40;99.90;;;;;;6157626;23;20025;-83
2022/08/08 12:24:22;;;;;;;2.83;2.15;;;22.60;99.90;;;;;;6161308;23;20248;-85
2022/08/08 12:26:55;;;;;;;3.20;2.28;;;22.70;99.90;;;;;;6101142;23;20036;-83
2022/08/08 12:29:31;;;;;;;2.22;2.13;;;22.60;99.90;;;;;;6075887;23;20021;-86
2022/08/08 12:32:10;;;;;;;2.38;2.10;;;22.70;99.90;;;;;;6158739;23;20036;-84
2022/08/08 12:34:58;;;;;;;2.22;2.13;;;22.80;99.30;;;;;;6151524;23;20028;-84
2022/08/08 12:37:47;;;;;;;2.58;2.47;;;22.80;99.90;;;;;;6153118;23;20028;-86
2022/08/08 12:40:41;;;;;;;2.08;1.98;;;23.00;99.40;;;;;;6104066;23;20018;-83
2022/08/08 12:43:34;;;;;;;1.85;1.75;;;23.10;99.40;;;;;;6132353;23;20025;-86
2022/08/08 12:46:22;;;;;;;2.15;2.00;;;23.10;99.90;;;;;;6126535;23;20040;-82
2022/08/08 12:48:55;;;;;;;2.63;2.42;;;23.10;99.50;;;;;;6122949;23;20029;-86
2022/08/08 12:51:44;;;;;;;2.17;1.88;;;23.20;99.60;;;;;;6146876;23;20021;-87
2022/08/08 12:54:23;;;;;;;2.55;1.85;;;23.30;99.90;;;;;;6126840;23;20465;-82
2022/08/08 12:56:53;;;;;;;1.80;1.70;;;23.40;98.30;;;;;;6158887;23;20021;-85
2022/08/08 12:59:27;;;;;;;1.70;1.60;;;23.40;98.50;;;;;;6133590;23;20016;-86
2022/08/08 13:02:26;;;;;;;5.07;1.77;;;23.40;97.80;;;;;;6123239;23;20497;-84
2022/08/08 13:04:57;;;;;;;1.70;1.60;;;23.30;98.20;;;;;;6158524;23;20025;-85
2022/08/08 13:07:39;;;;;;;2.20;2.10;;;23.30;98.50;;;;;;6158756;23;20354;-86
2022/08/08 13:10:33;;;;;;;1.85;1.75;;;23.40;99.70;;;;;;6125079;23;20033;-83
2022/08/08 13:13:06;;;;;;;5.57;2.03;;;23.40;97.10;;;;;;6157499;23;20301;-85
2022/08/08 13:15:35;;;;;;;1.92;1.83;;;23.30;97.60;;;;;;6134259;23;20037;-86
2022/08/08 13:18:04;;;;;;;2.40;2.05;;;23.40;97.90;;;;;;6152843;23;20025;-83
2022/08/08 13:20:47;;;;;;;1.90;1.80;;;23.40;96.80;;;;;;6157828;23;20014;-82
2022/08/08 13:23:18;;;;;;;9.68;1.77;;;23.50;95.60;;;;;;6132502;23;20021;-84
2022/08/08 13:26:05;;;;;;;1.98;1.60;;;23.40;96.80;;;;;;6153843;23;20021;-83
2022/08/08 13:28:42;;;;;;;1.35;1.25;;;23.50;99.00;;;;;;6158405;23;20009;-84
2022/08/08 13:31:15;;;;;;;1.67;1.58;;;23.40;97.10;;;;;;6160438;23;20010;-85
2022/08/08 13:33:46;;;;;;;3.30;1.75;;;23.40;97.70;;;;;;6128790;23;20033;-84
2022/08/08 13:36:17;;;;;;;2.08;1.88;;;23.30;97.30;;;;;;6160631;23;20024;-84
2022/08/08 13:38:54;;;;;;;1.73;1.63;;;23.40;97.90;;;;;;6150584;23;20037;-84
2022/08/08 13:41:28;;;;;;;5.10;2.85;;;23.50;97.90;;;;;;6156638;23;20025;-83
2022/08/08 13:44:12;;;;;;;2.03;1.92;;;23.50;96.90;;;;;;6161353;23;20032;-86
2022/08/08 13:46:57;;;;;;;1.92;1.83;;;23.70;98.60;;;;;;6151028;23;20341;-86
2022/08/08 13:49:27;;;;;;;1.60;1.50;;;23.80;96.80;;;;;;6131378;23;20415;-87
2022/08/08 13:52:15;;;;;;;1.88;1.77;;;23.90;97.70;;;;;;6133908;23;20013;-86
2022/08/08 13:55:05;;;;;;;2.13;1.92;;;23.90;97.20;;;;;;6129821;23;20037;-84
2022/08/08 13:57:35;;;;;;;1.67;1.58;;;24.00;97.80;;;;;;6149896;23;20036;-86
2022/08/08 14:00:23;;;;;;;2.05;1.95;;;24.20;98.90;;;;;;6125312;23;20013;-86
2022/08/08 14:03:01;;;;;;;1.58;1.48;;;24.30;97.60;;;;;;6125961;23;20032;-85
2022/08/08 14:05:48;;;;;;;5.88;2.60;;;24.30;96.50;;;;;;6125688;23;20037;-82
2022/08/08 14:08:28;;;;;;;2.20;2.03;;;24.10;96.40;;;;;;6123159;23;20349;-82
2022/08/08 14:11:01;;;;;;;2.10;1.90;;;24.00;96.60;;;;;;6149374;23;20040;-84
2022/08/08 14:13:28;;;;;;;22.80;2.17;;;23.90;96.30;;;;;;6100951;23;20030;-85
2022/08/08 14:16:02;;;;;;;2.17;1.98;;;23.90;96.40;;;;;;6162670;23;20021;-86
2022/08/08 14:18:30;;;;;;;2.63;1.70;;;23.90;96.60;;;;;;6124708;23;20033;-86
2022/08/08 14:21:05;;;;;;;2.38;2.15;;;24.00;96.80;;;;;;6159467;23;20484;-86
2022/08/08 14:23:44;;;;;;;2.67;2.22;;;24.10;96.20;;;;;;6158413;23;20118;-85